Hillman, Ohio
Current Conditions -  °F | °C
As of 7:55 AM on Friday 19 Dec 2014 (Local Time) from KFGX Reporting Station
Haze Haze  
Wind Chill: 23°   Ceiling: 1800
Heat Index: 23°   Visibility: 5mi
Dew Point: 21°   Wind: 0mph
Humidity: 95%   Direction: NA
Pressure: 30.28"   Gusts: NA
Location:  38.8698°N, 83.9081°W
Report Text: KFGX 191255Z AUTO 00000KT 5SM BR OVC018 M05/M06 A3028 RMK AO2 T10521059
Loading
Personal Weather Stations






























Interactive Weather Map New forecast layout! Learn more

10-Day Weather Forecast

Advertisements
Track Severe Weather on mobile